createdAt,value
2018-07-26T00:00:28.780Z,26.12
2018-07-26T00:01:28.918Z,26.07
2018-07-26T00:02:29.061Z,26.04
2018-07-26T00:03:29.207Z,26.04
2018-07-26T00:04:29.340Z,26.01
2018-07-26T00:05:29.488Z,26.00
2018-07-26T00:06:29.618Z,25.93
2018-07-26T00:07:29.790Z,25.89
2018-07-26T00:08:29.930Z,25.81
2018-07-26T00:09:30.099Z,25.93
2018-07-26T00:10:30.235Z,25.90
2018-07-26T00:11:30.385Z,25.85
2018-07-26T00:12:30.525Z,25.90
2018-07-26T00:13:30.668Z,25.89
2018-07-26T00:14:30.805Z,25.89
2018-07-26T00:15:30.978Z,25.88
2018-07-26T00:16:31.114Z,25.81
2018-07-26T00:17:31.253Z,25.83
2018-07-26T00:18:31.415Z,25.82
2018-07-26T00:19:31.553Z,25.82
2018-07-26T00:20:31.697Z,25.77
2018-07-26T00:21:31.865Z,25.78
2018-07-26T00:22:31.992Z,25.75
2018-07-26T00:23:32.131Z,25.71
2018-07-26T00:24:32.286Z,25.82
2018-07-26T00:25:32.425Z,25.73
2018-07-26T00:26:32.561Z,25.75
2018-07-26T00:27:32.756Z,25.67
2018-07-26T00:28:32.853Z,25.67
2018-07-26T00:29:32.990Z,25.74
2018-07-26T00:30:33.166Z,25.66
2018-07-26T00:31:33.300Z,25.68
2018-07-26T00:32:33.445Z,25.66
2018-07-26T00:33:33.600Z,25.64
2018-07-26T00:34:33.739Z,25.55
2018-07-26T00:35:33.882Z,25.52
2018-07-26T00:36:34.030Z,25.55
2018-07-26T00:37:34.172Z,25.56
2018-07-26T00:38:34.315Z,25.58
2018-07-26T00:39:34.487Z,25.53
2018-07-26T00:40:34.619Z,25.52
2018-07-26T00:41:34.760Z,25.52
2018-07-26T00:42:34.928Z,25.51
2018-07-26T00:43:35.058Z,25.43
2018-07-26T00:44:35.208Z,25.49
2018-07-26T00:45:35.371Z,25.45
2018-07-26T00:46:35.542Z,25.38
2018-07-26T00:47:35.682Z,25.34
2018-07-26T00:48:35.903Z,25.37
2018-07-26T00:49:35.981Z,25.36
2018-07-26T00:50:36.122Z,25.28
2018-07-26T00:51:36.262Z,25.38
2018-07-26T00:52:36.405Z,25.36
2018-07-26T00:53:36.543Z,25.31
2018-07-26T00:54:36.687Z,25.28
2018-07-26T00:55:36.831Z,25.28
2018-07-26T00:56:36.970Z,25.19
2018-07-26T00:57:37.120Z,25.18
2018-07-26T00:58:37.272Z,25.18
2018-07-26T00:59:37.410Z,25.23
2018-07-26T01:00:37.548Z,25.22
2018-07-26T01:01:37.697Z,25.14
2018-07-26T01:02:37.837Z,25.12
2018-07-26T01:03:37.983Z,25.11
2018-07-26T01:04:38.126Z,25.16
2018-07-26T01:05:38.268Z,25.12
2018-07-26T01:06:38.406Z,25.06
2018-07-26T01:07:38.546Z,25.12
2018-07-26T01:08:38.686Z,25.11
2018-07-26T01:09:38.844Z,25.11
2018-07-26T01:10:38.978Z,25.06
2018-07-26T01:11:39.124Z,25.06
2018-07-26T01:12:39.259Z,25.03
2018-07-26T01:13:40.166Z,25.00
2018-07-26T01:14:39.535Z,25.04
2018-07-26T01:15:39.675Z,25.04
2018-07-26T01:16:39.818Z,25.01
2018-07-26T01:17:39.967Z,25.01
2018-07-26T01:18:40.105Z,24.86
2018-07-26T01:19:40.250Z,24.99
2018-07-26T01:20:40.396Z,24.93
2018-07-26T01:21:40.531Z,24.93
2018-07-26T01:22:40.663Z,24.90
2018-07-26T01:23:40.805Z,24.85
2018-07-26T01:24:40.947Z,24.85
2018-07-26T01:25:41.092Z,24.82
2018-07-26T01:26:41.231Z,24.78
2018-07-26T01:27:41.373Z,24.71
2018-07-26T01:28:41.521Z,24.74
2018-07-26T01:29:41.676Z,24.84
2018-07-26T01:30:41.817Z,24.81
2018-07-26T01:31:41.953Z,24.74
2018-07-26T01:32:42.100Z,24.71
2018-07-26T01:33:42.242Z,24.75
2018-07-26T01:34:42.399Z,24.70
2018-07-26T01:35:42.548Z,24.74
2018-07-26T01:36:42.684Z,24.66
2018-07-26T01:37:42.823Z,24.55
2018-07-26T01:38:42.983Z,24.56
2018-07-26T01:39:43.125Z,24.52
2018-07-26T01:40:43.278Z,24.53
2018-07-26T01:41:43.422Z,24.58
2018-07-26T01:42:43.566Z,24.52
2018-07-26T01:43:43.706Z,24.47
2018-07-26T01:44:43.851Z,24.41
2018-07-26T01:45:43.982Z,24.44
2018-07-26T01:46:44.131Z,24.45
2018-07-26T01:47:44.259Z,24.41
2018-07-26T01:48:44.405Z,24.43
2018-07-26T01:49:44.546Z,24.44
2018-07-26T01:50:44.690Z,24.40
2018-07-26T01:51:44.830Z,24.34
2018-07-26T01:52:44.975Z,24.31
2018-07-26T01:53:45.107Z,24.36
2018-07-26T01:54:45.256Z,24.36
2018-07-26T01:55:45.420Z,24.31
2018-07-26T01:56:45.547Z,24.28
2018-07-26T01:57:45.691Z,24.29
2018-07-26T01:58:45.841Z,24.23
2018-07-26T01:59:45.980Z,24.16
2018-07-26T02:00:46.126Z,24.16
2018-07-26T02:01:46.310Z,24.18
2018-07-26T02:02:46.421Z,24.16
2018-07-26T02:03:46.567Z,24.08
2018-07-26T02:04:46.727Z,24.06
2018-07-26T02:05:46.868Z,24.07
2018-07-26T02:06:47.000Z,24.15
2018-07-26T02:07:47.173Z,24.06
2018-07-26T02:08:47.298Z,24.07
2018-07-26T02:09:47.440Z,24.03
2018-07-26T02:10:47.610Z,24.03
2018-07-26T02:11:47.743Z,24.00
2018-07-26T02:12:47.888Z,23.92
2018-07-26T02:13:48.028Z,23.94
2018-07-26T02:14:48.172Z,23.96
2018-07-26T02:15:48.307Z,23.86
2018-07-26T02:16:48.447Z,23.89
2018-07-26T02:17:48.590Z,23.92
2018-07-26T02:18:48.731Z,23.84
2018-07-26T02:19:48.876Z,23.78
2018-07-26T02:20:49.016Z,23.79
2018-07-26T02:21:49.170Z,23.81
2018-07-26T02:22:49.316Z,23.73
2018-07-26T02:23:49.454Z,23.73
2018-07-26T02:24:49.606Z,23.73
2018-07-26T02:25:49.750Z,23.81
2018-07-26T02:26:49.897Z,23.76
2018-07-26T02:27:50.040Z,23.64
2018-07-26T02:28:50.184Z,23.70
2018-07-26T02:29:50.334Z,23.81
2018-07-26T02:30:50.474Z,23.74
2018-07-26T02:31:50.616Z,23.69
2018-07-26T02:32:50.757Z,23.69
2018-07-26T02:33:50.894Z,23.67
2018-07-26T02:34:51.036Z,23.66
2018-07-26T02:35:51.178Z,23.66
2018-07-26T02:36:51.360Z,23.70
2018-07-26T02:37:51.470Z,23.63
2018-07-26T02:38:51.616Z,23.70
2018-07-26T02:39:51.832Z,23.71
2018-07-26T02:40:51.849Z,23.69
2018-07-26T02:41:51.991Z,23.74
2018-07-26T02:42:52.131Z,23.67
2018-07-26T02:43:52.278Z,23.61
2018-07-26T02:44:52.415Z,23.69
2018-07-26T02:45:52.559Z,23.64
2018-07-26T02:46:52.700Z,23.74
2018-07-26T02:47:52.846Z,23.64
2018-07-26T02:48:52.983Z,23.64
2018-07-26T02:49:53.129Z,23.55
2018-07-26T02:50:53.272Z,23.54
2018-07-26T02:51:53.410Z,23.63
2018-07-26T02:52:53.548Z,23.60
2018-07-26T02:53:53.690Z,23.61
2018-07-26T02:54:53.833Z,23.51
2018-07-26T02:55:53.976Z,23.52
2018-07-26T02:56:54.114Z,23.59
2018-07-26T02:57:54.279Z,23.52
2018-07-26T02:58:54.495Z,23.46
2018-07-26T02:59:54.509Z,23.54
2018-07-26T03:00:54.650Z,23.52
2018-07-26T03:01:54.823Z,23.56
2018-07-26T03:02:54.967Z,23.48
2018-07-26T03:03:55.111Z,23.48
2018-07-26T03:04:55.262Z,23.45
2018-07-26T03:05:55.401Z,23.46
2018-07-26T03:06:55.560Z,23.46
2018-07-26T03:07:55.704Z,23.45
2018-07-26T03:08:55.845Z,23.51
2018-07-26T03:09:56.007Z,23.39
2018-07-26T03:10:56.147Z,23.33
2018-07-26T03:11:56.286Z,23.45
2018-07-26T03:12:56.449Z,23.34
2018-07-26T03:13:56.584Z,23.41
2018-07-26T03:14:56.727Z,23.31
2018-07-26T03:15:56.894Z,23.33
2018-07-26T03:16:57.021Z,23.22
2018-07-26T03:17:57.160Z,23.26
2018-07-26T03:18:57.326Z,23.31
2018-07-26T03:19:57.459Z,23.33
2018-07-26T03:20:57.609Z,23.28
2018-07-26T03:21:57.760Z,23.28
2018-07-26T03:22:57.896Z,23.18
2018-07-26T03:23:58.045Z,23.28
2018-07-26T03:24:58.211Z,23.26
2018-07-26T03:25:58.338Z,23.17
2018-07-26T03:26:58.480Z,23.26
2018-07-26T03:27:58.622Z,23.17
2018-07-26T03:28:58.757Z,23.26
2018-07-26T03:29:58.894Z,23.21
2018-07-26T03:30:59.050Z,23.14
2018-07-26T03:31:59.186Z,23.17
2018-07-26T03:32:59.335Z,23.15
2018-07-26T03:33:59.486Z,23.13
2018-07-26T03:34:59.613Z,23.11
2018-07-26T03:35:59.796Z,23.14
2018-07-26T03:36:59.973Z,23.11
2018-07-26T03:38:00.117Z,23.13
2018-07-26T03:39:00.243Z,23.18
2018-07-26T03:40:00.409Z,23.15
2018-07-26T03:41:00.537Z,23.21
2018-07-26T03:42:00.674Z,23.14
2018-07-26T03:43:00.814Z,23.11
2018-07-26T03:44:00.962Z,23.14
2018-07-26T03:45:01.104Z,23.01
2018-07-26T03:46:01.247Z,22.96
2018-07-26T03:47:01.391Z,23.03
2018-07-26T03:48:01.542Z,22.99
2018-07-26T03:49:01.683Z,22.95
2018-07-26T03:50:01.817Z,22.96
2018-07-26T03:51:02.012Z,22.96
2018-07-26T03:52:02.101Z,22.95
2018-07-26T03:53:02.243Z,22.93
2018-07-26T03:54:02.385Z,22.96
2018-07-26T03:55:02.530Z,22.95
2018-07-26T03:56:02.670Z,22.95
2018-07-26T03:57:02.825Z,22.92
2018-07-26T03:58:02.968Z,22.91
2018-07-26T03:59:03.110Z,22.93
2018-07-26T04:00:03.312Z,22.98
2018-07-26T04:01:03.327Z,22.93
2018-07-26T04:02:03.471Z,22.98
2018-07-26T04:03:03.617Z,22.98
2018-07-26T04:04:03.757Z,22.95
2018-07-26T04:05:03.901Z,22.99
2018-07-26T04:06:04.042Z,22.98
2018-07-26T04:07:04.185Z,23.03
2018-07-26T04:08:04.330Z,22.95
2018-07-26T04:09:04.467Z,22.92
2018-07-26T04:10:04.608Z,22.95
2018-07-26T04:11:04.745Z,23.01
2018-07-26T04:12:04.884Z,22.99
2018-07-26T04:13:05.025Z,23.08
2018-07-26T04:14:05.201Z,22.93
2018-07-26T04:15:05.317Z,22.99
2018-07-26T04:16:05.455Z,23.06
2018-07-26T04:17:05.593Z,22.99
2018-07-26T04:18:05.740Z,22.98
2018-07-26T04:19:05.877Z,22.96
2018-07-26T04:20:06.059Z,23.01
2018-07-26T04:21:06.157Z,22.96
2018-07-26T04:22:06.302Z,22.91
2018-07-26T04:23:06.448Z,22.89
2018-07-26T04:24:06.590Z,22.76
2018-07-26T04:25:06.733Z,22.61
2018-07-26T04:26:06.966Z,22.62
2018-07-26T04:27:07.032Z,22.66
2018-07-26T04:28:07.173Z,22.70
2018-07-26T04:29:07.344Z,22.74
2018-07-26T04:30:07.463Z,22.66
2018-07-26T04:31:07.608Z,22.27
2018-07-26T04:32:07.804Z,22.03
2018-07-26T04:33:07.886Z,22.04
2018-07-26T04:34:08.026Z,21.84
2018-07-26T04:35:08.179Z,21.63
2018-07-26T04:36:08.320Z,21.56
2018-07-26T04:37:08.466Z,21.80
2018-07-26T04:38:08.601Z,22.00
2018-07-26T04:39:08.742Z,21.97
2018-07-26T04:40:08.915Z,21.82
2018-07-26T04:41:09.044Z,21.96
2018-07-26T04:42:09.186Z,21.71
2018-07-26T04:43:09.337Z,21.81
2018-07-26T04:44:09.487Z,21.84
2018-07-26T04:45:09.630Z,22.04
2018-07-26T04:46:09.784Z,22.06
2018-07-26T04:47:09.913Z,22.13
2018-07-26T04:48:10.055Z,22.22
2018-07-26T04:49:10.198Z,22.27
2018-07-26T04:50:10.339Z,22.43
2018-07-26T04:51:10.479Z,22.44
2018-07-26T04:52:10.634Z,22.44
2018-07-26T04:53:10.769Z,22.51
2018-07-26T04:54:10.913Z,22.62
2018-07-26T04:55:11.067Z,22.55
2018-07-26T04:56:11.222Z,22.74
2018-07-26T04:57:11.363Z,22.78
2018-07-26T04:58:11.511Z,22.73
2018-07-26T04:59:11.674Z,22.81
2018-07-26T05:00:11.819Z,22.89
2018-07-26T05:01:11.966Z,22.74
2018-07-26T05:02:12.105Z,22.92
2018-07-26T05:03:12.242Z,22.93
2018-07-26T05:04:12.419Z,22.99
2018-07-26T05:05:12.551Z,23.01
2018-07-26T05:06:12.702Z,22.99
2018-07-26T05:07:12.848Z,23.04
2018-07-26T05:08:13.019Z,23.08
2018-07-26T05:09:13.122Z,23.11
2018-07-26T05:10:13.267Z,23.21
2018-07-26T05:11:13.406Z,23.13
2018-07-26T05:12:13.547Z,23.15
2018-07-26T05:13:13.693Z,23.21
2018-07-26T05:14:13.837Z,23.23
2018-07-26T05:15:13.978Z,23.28
2018-07-26T05:16:14.113Z,23.37
2018-07-26T05:17:14.262Z,23.36
2018-07-26T05:18:14.404Z,23.37
2018-07-26T05:19:14.544Z,23.41
2018-07-26T05:20:14.682Z,23.44
2018-07-26T05:21:14.826Z,23.48
2018-07-26T05:22:14.969Z,23.49
2018-07-26T05:23:15.127Z,23.48
2018-07-26T05:24:15.266Z,23.52
2018-07-26T05:25:15.407Z,23.55
2018-07-26T05:26:15.575Z,23.56
2018-07-26T05:27:15.709Z,23.55
2018-07-26T05:28:15.855Z,23.63
2018-07-26T05:29:16.008Z,23.54
2018-07-26T05:30:16.152Z,23.55
2018-07-26T05:31:16.294Z,23.70
2018-07-26T05:32:16.428Z,23.61
2018-07-26T05:33:16.561Z,23.70
2018-07-26T05:34:16.728Z,23.74
2018-07-26T05:35:16.863Z,23.59
2018-07-26T05:36:17.006Z,23.71
2018-07-26T05:37:17.145Z,23.70
2018-07-26T05:38:17.290Z,23.71
2018-07-26T05:39:17.432Z,23.86
2018-07-26T05:40:17.575Z,23.81
2018-07-26T05:41:17.718Z,23.86
2018-07-26T05:42:17.860Z,23.85
2018-07-26T05:43:18.028Z,23.84
2018-07-26T05:44:18.179Z,23.89
2018-07-26T05:45:18.315Z,23.88
2018-07-26T05:46:18.459Z,23.89
2018-07-26T05:47:18.672Z,23.94
2018-07-26T05:48:18.679Z,23.98
2018-07-26T05:49:18.814Z,23.98
2018-07-26T05:50:18.976Z,23.89
2018-07-26T05:51:19.112Z,24.06
2018-07-26T05:52:19.258Z,24.03
2018-07-26T05:53:19.448Z,24.08
2018-07-26T05:54:19.558Z,24.10
2018-07-26T05:55:19.701Z,24.08
2018-07-26T05:56:19.856Z,24.06
2018-07-26T05:57:19.990Z,24.07
2018-07-26T05:58:20.129Z,24.13
2018-07-26T05:59:20.267Z,24.07
2018-07-26T06:00:20.409Z,24.15
2018-07-26T06:01:20.560Z,24.26
2018-07-26T06:02:20.712Z,24.21
2018-07-26T06:03:20.863Z,24.16
2018-07-26T06:04:21.003Z,24.19
2018-07-26T06:05:21.134Z,24.23
2018-07-26T06:06:21.276Z,24.33
2018-07-26T06:07:21.444Z,24.36
2018-07-26T06:08:21.578Z,24.36
2018-07-26T06:09:21.720Z,24.33
2018-07-26T06:10:21.871Z,24.37
2018-07-26T06:11:22.016Z,24.38
2018-07-26T06:12:22.157Z,24.40
2018-07-26T06:13:22.310Z,24.45
2018-07-26T06:14:22.449Z,24.47
2018-07-26T06:15:22.601Z,24.47
2018-07-26T06:16:22.826Z,24.52
2018-07-26T06:17:22.919Z,24.53
2018-07-26T06:18:23.054Z,24.58
2018-07-26T06:19:23.218Z,24.53
2018-07-26T06:20:23.346Z,24.53
2018-07-26T06:21:23.493Z,24.53
2018-07-26T06:22:23.662Z,24.53
2018-07-26T06:23:23.795Z,24.65
2018-07-26T06:24:23.938Z,24.75
2018-07-26T06:25:24.098Z,24.60
2018-07-26T06:26:24.235Z,24.75
2018-07-26T06:27:24.372Z,24.65
2018-07-26T06:28:24.539Z,24.70
2018-07-26T06:29:24.678Z,24.76
2018-07-26T06:30:24.831Z,24.78
2018-07-26T06:31:24.965Z,24.82
2018-07-26T06:32:25.103Z,24.79
2018-07-26T06:33:25.285Z,24.89
2018-07-26T06:34:25.404Z,24.93
2018-07-26T06:35:25.550Z,24.93
2018-07-26T06:36:25.689Z,24.86
2018-07-26T06:37:25.839Z,25.01
2018-07-26T06:38:25.990Z,25.01
2018-07-26T06:39:26.134Z,24.99
2018-07-26T06:40:26.277Z,25.03
2018-07-26T06:41:26.417Z,25.11
2018-07-26T06:42:26.563Z,25.00
2018-07-26T06:43:26.712Z,25.06
2018-07-26T06:44:26.856Z,25.04
2018-07-26T06:45:27.001Z,25.12
2018-07-26T06:46:27.139Z,25.12
2018-07-26T06:47:27.285Z,25.21
2018-07-26T06:48:27.432Z,25.16
2018-07-26T06:49:27.579Z,25.11
2018-07-26T06:50:27.721Z,25.15
2018-07-26T06:51:27.870Z,25.23
2018-07-26T06:52:28.006Z,25.22
2018-07-26T06:53:28.149Z,25.16
2018-07-26T06:54:28.289Z,25.33
2018-07-26T06:55:28.429Z,25.31
2018-07-26T06:56:28.573Z,25.40
2018-07-26T06:57:28.723Z,25.37
2018-07-26T06:58:28.862Z,25.37
2018-07-26T06:59:29.001Z,25.49
2018-07-26T07:00:29.150Z,25.48
2018-07-26T07:01:29.303Z,25.51
2018-07-26T07:02:29.441Z,25.58
2018-07-26T07:03:29.585Z,25.49
2018-07-26T07:04:29.747Z,25.51
2018-07-26T07:05:29.884Z,25.56
2018-07-26T07:06:30.035Z,25.58
2018-07-26T07:07:30.212Z,25.55
2018-07-26T07:08:30.339Z,25.71
2018-07-26T07:09:30.485Z,25.68
2018-07-26T07:10:30.627Z,25.61
2018-07-26T07:11:30.771Z,25.70
2018-07-26T07:12:30.922Z,25.77
2018-07-26T07:13:31.054Z,25.75
2018-07-26T07:14:31.210Z,25.82
2018-07-26T07:15:31.359Z,25.85
2018-07-26T07:16:31.496Z,25.83
2018-07-26T07:17:31.642Z,25.92
2018-07-26T07:18:31.793Z,25.83
2018-07-26T07:19:31.937Z,25.98
2018-07-26T07:20:32.095Z,26.00
2018-07-26T07:21:32.249Z,26.00
2018-07-26T07:22:32.385Z,26.05
2018-07-26T07:23:32.529Z,26.01
2018-07-26T07:24:32.693Z,26.05
2018-07-26T07:25:32.824Z,26.16
2018-07-26T07:26:32.969Z,26.16
2018-07-26T07:27:33.111Z,26.11
2018-07-26T07:28:33.263Z,26.20
2018-07-26T07:29:33.405Z,26.23
2018-07-26T07:30:33.569Z,26.31
2018-07-26T07:31:33.716Z,26.28
2018-07-26T07:32:33.857Z,26.30
2018-07-26T07:33:34.012Z,26.31
2018-07-26T07:34:34.154Z,26.41
2018-07-26T07:35:34.303Z,26.46
2018-07-26T07:36:34.460Z,26.43
2018-07-26T07:37:34.602Z,26.38
2018-07-26T07:38:34.747Z,26.36
2018-07-26T07:39:34.912Z,26.58
2018-07-26T07:40:35.046Z,26.60
2018-07-26T07:41:35.195Z,26.70
2018-07-26T07:42:35.339Z,26.75
2018-07-26T07:43:35.495Z,26.68
2018-07-26T07:44:35.633Z,26.71
2018-07-26T07:45:35.783Z,26.73
2018-07-26T07:46:35.959Z,26.70
2018-07-26T07:47:36.133Z,26.82
2018-07-26T07:48:36.232Z,26.86
2018-07-26T07:49:36.377Z,26.85
2018-07-26T07:50:36.518Z,26.93
2018-07-26T07:51:36.685Z,26.88
2018-07-26T07:52:36.814Z,26.83
2018-07-26T07:53:36.967Z,26.89
2018-07-26T07:54:37.111Z,26.98
2018-07-26T07:55:37.278Z,27.03
2018-07-26T07:56:37.434Z,27.03
2018-07-26T07:57:37.589Z,27.08
2018-07-26T07:58:37.725Z,27.16
2018-07-26T07:59:37.877Z,27.16
2018-07-26T08:00:38.006Z,27.05
2018-07-26T08:01:38.161Z,27.10
2018-07-26T08:02:38.300Z,27.20
2018-07-26T08:03:38.444Z,27.20
2018-07-26T08:04:38.585Z,27.16
2018-07-26T08:05:38.735Z,27.17
2018-07-26T08:06:38.920Z,27.37
2018-07-26T08:07:39.012Z,27.38
2018-07-26T08:08:39.162Z,27.45
2018-07-26T08:09:39.308Z,27.42
2018-07-26T08:10:39.454Z,27.47
2018-07-26T08:11:39.592Z,27.52
2018-07-26T08:12:39.802Z,27.54
2018-07-26T08:13:39.891Z,27.60
2018-07-26T08:14:40.033Z,27.68
2018-07-26T08:15:40.177Z,27.72
2018-07-26T08:16:40.329Z,27.64
2018-07-26T08:17:40.474Z,27.66
2018-07-26T08:18:40.614Z,27.85
2018-07-26T08:19:40.758Z,27.73
2018-07-26T08:20:40.901Z,27.83
2018-07-26T08:21:41.045Z,27.90
2018-07-26T08:22:41.209Z,27.98
2018-07-26T08:23:41.343Z,27.98
2018-07-26T08:24:41.495Z,28.01
2018-07-26T08:25:41.662Z,28.03
2018-07-26T08:26:41.819Z,28.09
2018-07-26T08:27:41.971Z,28.16
2018-07-26T08:28:42.119Z,28.19
2018-07-26T08:29:42.263Z,28.17
2018-07-26T08:30:42.402Z,28.12
2018-07-26T08:31:42.546Z,28.17
2018-07-26T08:32:42.688Z,28.19
2018-07-26T08:33:42.832Z,28.24
2018-07-26T08:34:42.993Z,28.35
2018-07-26T08:35:43.134Z,28.43
2018-07-26T08:36:43.274Z,28.50
2018-07-26T08:37:43.434Z,28.44
2018-07-26T08:38:43.575Z,28.46
2018-07-26T08:39:43.725Z,28.53
2018-07-26T08:40:43.890Z,28.56
2018-07-26T08:41:44.032Z,28.62
2018-07-26T08:42:44.172Z,28.64
2018-07-26T08:43:44.400Z,28.65
2018-07-26T08:44:44.479Z,28.66
2018-07-26T08:45:44.622Z,28.77
2018-07-26T08:46:44.784Z,28.77
2018-07-26T08:47:44.924Z,28.68
2018-07-26T08:48:45.071Z,28.69
2018-07-26T08:49:45.225Z,28.74
2018-07-26T08:50:45.367Z,28.75
2018-07-26T08:51:45.509Z,28.80
2018-07-26T08:52:45.668Z,28.86
2018-07-26T08:53:45.813Z,28.89
2018-07-26T08:54:45.959Z,28.90
2018-07-26T08:55:46.111Z,28.91
2018-07-26T08:56:46.259Z,28.86
2018-07-26T08:57:46.401Z,28.91
2018-07-26T08:58:46.537Z,28.87
2018-07-26T08:59:46.677Z,28.87
2018-07-26T09:00:46.824Z,28.90
2018-07-26T09:01:46.996Z,28.89
2018-07-26T09:02:47.159Z,28.81
2018-07-26T09:03:47.284Z,28.90
2018-07-26T09:04:47.444Z,28.94
2018-07-26T09:05:47.584Z,28.91
2018-07-26T09:06:47.724Z,28.98
2018-07-26T09:07:47.894Z,28.93
2018-07-26T09:08:48.020Z,28.93
2018-07-26T09:09:48.182Z,29.06
2018-07-26T09:10:48.339Z,29.03
2018-07-26T09:11:48.461Z,29.15
2018-07-26T09:12:48.604Z,29.24
2018-07-26T09:13:48.831Z,29.18
2018-07-26T09:14:48.919Z,29.28
2018-07-26T09:15:49.057Z,29.27
2018-07-26T09:16:49.208Z,29.33
2018-07-26T09:17:49.350Z,29.37
2018-07-26T09:18:49.496Z,29.34
2018-07-26T09:19:49.656Z,29.39
2018-07-26T09:20:49.785Z,29.46
2018-07-26T09:21:49.928Z,29.44
2018-07-26T09:22:50.074Z,29.49
2018-07-26T09:23:50.219Z,29.50
2018-07-26T09:24:50.361Z,29.61
2018-07-26T09:25:50.516Z,29.68
2018-07-26T09:26:50.661Z,29.63
2018-07-26T09:27:50.814Z,29.73
2018-07-26T09:28:51.008Z,29.86
2018-07-26T09:29:51.112Z,29.84
2018-07-26T09:30:51.259Z,29.89
2018-07-26T09:31:51.421Z,29.91
2018-07-26T09:32:51.571Z,29.91
2018-07-26T09:33:51.699Z,29.95
2018-07-26T09:34:51.839Z,30.02
2018-07-26T09:35:51.986Z,30.00
2018-07-26T09:36:52.134Z,29.98
2018-07-26T09:37:52.272Z,30.00
2018-07-26T09:38:52.414Z,29.95
2018-07-26T09:39:52.563Z,29.98
2018-07-26T09:40:52.716Z,29.99
2018-07-26T09:41:52.863Z,29.98
2018-07-26T09:42:53.010Z,30.05
2018-07-26T09:43:53.160Z,30.02
2018-07-26T09:44:53.307Z,30.03
2018-07-26T09:45:53.449Z,30.05
2018-07-26T09:46:53.600Z,30.08
2018-07-26T09:47:53.745Z,30.10
2018-07-26T09:48:53.891Z,30.11
2018-07-26T09:49:54.056Z,30.05
2018-07-26T09:50:54.188Z,30.08
2018-07-26T09:51:54.339Z,30.08
2018-07-26T09:52:54.481Z,30.20
2018-07-26T09:53:54.626Z,30.21
2018-07-26T09:54:54.804Z,30.21
2018-07-26T09:55:54.915Z,30.29
2018-07-26T09:56:55.067Z,30.30
2018-07-26T09:57:55.212Z,30.24
2018-07-26T09:58:55.363Z,30.28
2018-07-26T09:59:55.504Z,30.29
2018-07-26T10:00:55.658Z,30.30
2018-07-26T10:01:55.867Z,30.28
2018-07-26T10:02:55.997Z,30.39
2018-07-26T10:03:56.143Z,30.37
2018-07-26T10:04:56.304Z,30.51
2018-07-26T10:05:56.448Z,30.48
2018-07-26T10:06:56.639Z,30.46
2018-07-26T10:07:56.739Z,30.55
2018-07-26T10:08:56.871Z,30.58
2018-07-26T10:09:57.017Z,30.45
2018-07-26T10:10:57.178Z,30.59
2018-07-26T10:11:57.334Z,30.49
2018-07-26T10:12:57.475Z,30.37
2018-07-26T10:13:57.685Z,30.46
2018-07-26T10:14:57.810Z,30.45
2018-07-26T10:15:57.951Z,30.49
2018-07-26T10:16:58.099Z,30.40
2018-07-26T10:17:58.230Z,30.40
2018-07-26T10:18:58.372Z,30.49
2018-07-26T10:19:58.537Z,30.62
2018-07-26T10:20:58.681Z,30.62
2018-07-26T10:21:58.823Z,30.53
2018-07-26T10:22:58.970Z,30.58
2018-07-26T10:23:59.114Z,30.53
2018-07-26T10:24:59.277Z,30.58
2018-07-26T10:25:59.420Z,30.70
2018-07-26T10:26:59.561Z,30.74
2018-07-26T10:27:59.729Z,30.71
2018-07-26T10:28:59.870Z,30.73
2018-07-26T10:30:00.019Z,30.82
2018-07-26T10:31:00.166Z,30.77
2018-07-26T10:32:00.314Z,30.85
2018-07-26T10:33:00.458Z,30.82
2018-07-26T10:34:00.620Z,30.86
2018-07-26T10:35:00.751Z,30.86
2018-07-26T10:36:00.900Z,30.93
2018-07-26T10:37:01.050Z,30.97
2018-07-26T10:38:01.191Z,30.99
2018-07-26T10:39:01.346Z,31.12
2018-07-26T10:40:01.501Z,31.07
2018-07-26T10:41:01.633Z,31.20
2018-07-26T10:42:01.792Z,31.20
2018-07-26T10:43:01.932Z,31.20
2018-07-26T10:44:02.081Z,31.26
2018-07-26T10:45:02.242Z,31.24
2018-07-26T10:46:02.389Z,31.19
2018-07-26T10:47:02.536Z,31.24
2018-07-26T10:48:02.712Z,31.27
2018-07-26T10:49:02.846Z,31.32
2018-07-26T10:50:03.035Z,31.32
2018-07-26T10:51:03.145Z,31.37
2018-07-26T10:52:03.278Z,31.37
2018-07-26T10:53:03.427Z,31.39
2018-07-26T10:54:03.572Z,31.46
2018-07-26T10:55:03.722Z,31.46
2018-07-26T10:56:03.869Z,31.54
2018-07-26T10:57:04.023Z,31.54
2018-07-26T10:58:04.168Z,31.61
2018-07-26T10:59:04.314Z,31.63
2018-07-26T11:00:04.464Z,31.64
2018-07-26T11:01:04.608Z,31.70
2018-07-26T11:02:04.758Z,31.67
2018-07-26T11:03:04.905Z,31.78
2018-07-26T11:04:05.057Z,31.75
2018-07-26T11:05:05.206Z,31.71
2018-07-26T11:06:05.357Z,31.70
2018-07-26T11:07:05.500Z,31.75
2018-07-26T11:08:05.649Z,31.70
2018-07-26T11:09:05.801Z,31.66
2018-07-26T11:10:05.935Z,31.70
2018-07-26T11:11:06.080Z,31.71
2018-07-26T11:12:06.225Z,31.71
2018-07-26T11:13:06.373Z,31.79
2018-07-26T11:14:06.525Z,31.81
2018-07-26T11:15:06.693Z,31.89
2018-07-26T11:16:06.818Z,31.86
2018-07-26T11:17:06.967Z,31.90
2018-07-26T11:18:07.110Z,31.91
2018-07-26T11:19:07.277Z,31.94
2018-07-26T11:20:07.409Z,31.94
2018-07-26T11:21:07.555Z,32.01
2018-07-26T11:22:07.701Z,32.16
2018-07-26T11:23:07.843Z,32.21
2018-07-26T11:24:08.050Z,32.16
2018-07-26T11:25:08.139Z,32.14
2018-07-26T11:26:08.291Z,32.31
2018-07-26T11:27:08.454Z,32.20
2018-07-26T11:28:08.589Z,32.16
2018-07-26T11:29:08.739Z,32.23
2018-07-26T11:30:08.884Z,32.23
2018-07-26T11:31:09.045Z,32.16
2018-07-26T11:32:09.219Z,32.19
2018-07-26T11:33:09.360Z,32.20
2018-07-26T11:34:09.511Z,32.16
2018-07-26T11:35:09.667Z,32.26
2018-07-26T11:36:09.814Z,32.23
2018-07-26T11:37:09.980Z,32.32
2018-07-26T11:38:10.118Z,32.35
2018-07-26T11:39:10.277Z,32.31
2018-07-26T11:40:10.429Z,32.43
2018-07-26T11:41:10.573Z,32.42
2018-07-26T11:42:10.732Z,32.43
2018-07-26T11:43:10.874Z,32.43
2018-07-26T11:44:11.032Z,32.38
2018-07-26T11:45:11.179Z,32.50
2018-07-26T11:46:11.419Z,32.51
2018-07-26T11:47:11.495Z,32.53
2018-07-26T11:48:11.641Z,32.68
2018-07-26T11:49:11.805Z,32.73
2018-07-26T11:50:11.986Z,32.73
2018-07-26T11:51:12.086Z,32.63
2018-07-26T11:52:12.253Z,32.79
2018-07-26T11:53:12.403Z,32.88
2018-07-26T11:54:12.547Z,32.87
2018-07-26T11:55:12.715Z,32.73
2018-07-26T11:56:12.858Z,32.76
2018-07-26T11:57:13.016Z,32.73
2018-07-26T11:58:13.162Z,32.75
2018-07-26T11:59:13.304Z,32.60
2018-07-26T12:00:13.534Z,32.61
2018-07-26T12:01:13.563Z,32.70
2018-07-26T12:02:13.709Z,32.73
2018-07-26T12:03:13.875Z,32.76
2018-07-26T12:04:14.037Z,32.77
2018-07-26T12:05:14.201Z,32.90
2018-07-26T12:06:14.356Z,32.98
2018-07-26T12:07:14.497Z,33.01
2018-07-26T12:08:14.776Z,32.99
2018-07-26T12:09:14.813Z,33.09
2018-07-26T12:10:14.952Z,33.13
2018-07-26T12:11:15.098Z,33.19
2018-07-26T12:12:15.274Z,33.16
2018-07-26T12:13:15.415Z,33.19
2018-07-26T12:14:15.589Z,33.20
2018-07-26T12:15:15.746Z,33.20
2018-07-26T12:16:15.876Z,33.26
2018-07-26T12:17:16.024Z,33.32
2018-07-26T12:18:16.182Z,33.26
2018-07-26T12:19:16.322Z,33.37
2018-07-26T12:20:16.474Z,33.37
2018-07-26T12:21:16.621Z,33.48
2018-07-26T12:22:16.763Z,33.52
2018-07-26T12:23:16.909Z,33.52
2018-07-26T12:24:17.074Z,33.66
2018-07-26T12:25:17.229Z,33.64
2018-07-26T12:26:17.378Z,33.67
2018-07-26T12:27:17.524Z,33.63
2018-07-26T12:28:17.674Z,33.67
2018-07-26T12:29:17.819Z,33.76
2018-07-26T12:30:17.970Z,33.78
2018-07-26T12:31:18.116Z,33.82
2018-07-26T12:32:18.270Z,33.86
2018-07-26T12:33:18.423Z,33.73
2018-07-26T12:34:18.577Z,33.78
2018-07-26T12:35:18.720Z,33.73
2018-07-26T12:36:18.876Z,33.81
2018-07-26T12:37:19.028Z,33.86
2018-07-26T12:38:19.181Z,33.85
2018-07-26T12:39:19.333Z,33.84
2018-07-26T12:40:19.478Z,33.98
2018-07-26T12:41:19.622Z,34.00
2018-07-26T12:42:19.770Z,33.97
2018-07-26T12:43:19.917Z,33.95
2018-07-26T12:44:20.067Z,33.91
2018-07-26T12:45:20.212Z,33.86
2018-07-26T12:46:20.361Z,33.95
2018-07-26T12:47:20.507Z,33.97
2018-07-26T12:48:20.652Z,33.95
2018-07-26T12:49:20.805Z,33.97
2018-07-26T12:50:20.954Z,33.97
2018-07-26T12:51:21.110Z,33.98
2018-07-26T12:52:21.254Z,34.00
2018-07-26T12:53:21.400Z,34.06
2018-07-26T12:54:21.549Z,34.06